Ryoho Maru No.2 — JD2964 — position and weather

sailwx.info

Track history (hours):
 
Tides and Currents Weather Stations Pressure Air Temp Water Temp Dewpoint Dewpoint Depression Visibility Wind Speed Wind Dir Waves Ship Positions

Ryoho Maru No.2

Last reported at 2016-Jul-26 11:05 UTC. Time now 2016-Jul-26 12:15 UTC.
Position N 35°02' E 140°13'.

Length 57 m; draft 4 m.

Type: Tanker. MMSI: 431001062.

Date/timePositionNaut miles runAvg speedWind from/ knotsBaromVisibWave heightAir tempDewpointWater temp
2016-Jul-26 11:05N 35°02' E 140°13'6 9.8
2016-Jul-26 10:29N 34°59' E 140°07'910.0
2016-Jul-26 09:32N 34°54' E 139°58'10 8.9
2016-Jul-26 08:28N 34°55' E 139°46'8 8.6
2016-Jul-26 07:33N 35°03' E 139°45'10 9.7
2016-Jul-26 06:33N 35°13' E 139°46'9 9.2
2016-Jul-26 05:33N 35°21' E 139°42'9 8.5
2016-Jul-26 04:34N 35°28' E 139°49'9 9.2
2016-Jul-26 03:33N 35°29' E 140°00'1 1.2
2016-Jul-26 02:28N 35°28' E 140°01'0 0.0
2016-Jul-26 01:28N 35°28' E 140°01'0 0.0
2016-Jul-26 00:28N 35°28' E 140°01'0 0.0
2016-Jul-25 23:28N 35°28' E 140°01'2 2.3
2016-Jul-25 22:33N 35°29' E 139°59'0 0.2
2016-Jul-25 21:33N 35°29' E 139°59'0 0.0
2016-Jul-25 20:33N 35°29' E 139°59'0 0.0
2016-Jul-25 19:33N 35°29' E 139°59'0 0.1
2016-Jul-25 18:33N 35°29' E 139°59'0 0.0
2016-Jul-25 17:33N 35°29' E 139°59'0 0.0
2016-Jul-25 16:33N 35°29' E 139°59'0 0.0
2016-Jul-25 15:33N 35°29' E 139°59'0 0.0
2016-Jul-25 14:33N 35°29' E 139°59'0 0.0
2016-Jul-25 13:33N 35°29' E 139°59'0 0.0
2016-Jul-25 12:33N 35°29' E 139°59'0 0.0
2016-Jul-25 11:24N 35°29' E 139°59'0 0.0
2016-Jul-25 10:33N 35°29' E 139°59'0 0.0
2016-Jul-25 09:33N 35°29' E 139°59'0 0.0
2016-Jul-25 08:18N 35°29' E 139°59'0 0.0
2016-Jul-25 07:27N 35°29' E 139°59'0 0.0
2016-Jul-25 06:33N 35°29' E 139°59'0 0.0
2016-Jul-25 05:27N 35°29' E 139°59'2 2.3
2016-Jul-25 04:33N 35°30' E 139°56'9 8.7
2016-Jul-25 03:33N 35°31' E 139°46'1 0.5
2016-Jul-25 02:31N 35°32' E 139°45'0 0.0
2016-Jul-25 01:31N 35°32' E 139°45'0 0.0
2016-Jul-25 00:31N 35°32' E 139°45'1 1.4
2016-Jul-24 23:33N 35°31' E 139°46'3 2.6
2016-Jul-24 22:32N 35°30' E 139°49'0 0.0
2016-Jul-24 21:32N 35°30' E 139°49'0 0.0
2016-Jul-24 20:32N 35°30' E 139°49'0 0.0
2016-Jul-24 19:32N 35°30' E 139°49'0 0.0
2016-Jul-24 18:29N 35°30' E 139°49'0 0.0
2016-Jul-24 17:29N 35°30' E 139°49'0 0.0
2016-Jul-24 16:32N 35°30' E 139°49'0 0.0
2016-Jul-24 15:32N 35°30' E 139°49'0 0.0
2016-Jul-24 14:32N 35°30' E 139°49'0 0.0
2016-Jul-24 13:32N 35°30' E 139°49'0 0.0
2016-Jul-24 12:32N 35°30' E 139°49'0 0.0
2016-Jul-24 11:32N 35°30' E 139°49'0 0.0
2016-Jul-24 10:32N 35°30' E 139°49'0 0.0
2016-Jul-24 09:32N 35°30' E 139°49'0 0.0
2016-Jul-24 08:32N 35°30' E 139°49'0 0.0
2016-Jul-24 07:32N 35°30' E 139°49'0 0.0
2016-Jul-24 06:32N 35°30' E 139°49'0 0.0
2016-Jul-24 05:32N 35°30' E 139°49'0 0.0
2016-Jul-24 04:32N 35°30' E 139°49'0 0.0
2016-Jul-24 03:32N 35°30' E 139°49'0 0.0
2016-Jul-24 02:32N 35°30' E 139°49'0 0.0
2016-Jul-24 01:32N 35°30' E 139°49'0 0.0
2016-Jul-24 00:32N 35°30' E 139°49'0 0.0
2016-Jul-23 23:32N 35°30' E 139°49'0 0.0
2016-Jul-23 22:32N 35°30' E 139°49'0 0.0
2016-Jul-23 21:32N 35°30' E 139°49'0 0.0
2016-Jul-23 20:32N 35°30' E 139°49'0 0.0
2016-Jul-23 19:32N 35°30' E 139°49'0 0.0
2016-Jul-23 18:32N 35°30' E 139°49'0 0.0
2016-Jul-23 17:32N 35°30' E 139°49'0 0.0
2016-Jul-23 16:32N 35°30' E 139°49'0 0.0
2016-Jul-23 15:32N 35°30' E 139°49'0 0.0
2016-Jul-23 14:32N 35°30' E 139°49'0 0.0
2016-Jul-23 13:32N 35°30' E 139°49'0 0.0
2016-Jul-23 12:32N 35°30' E 139°49'0 0.0
2016-Jul-23 11:32N 35°30' E 139°49'0 0.0
2016-Jul-23 10:32N 35°30' E 139°49'0 0.0
2016-Jul-23 09:32N 35°30' E 139°49'0 0.0
2016-Jul-23 08:32N 35°30' E 139°49'0 0.0
2016-Jul-23 07:32N 35°30' E 139°49'0 0.0
2016-Jul-23 06:32N 35°30' E 139°49'0 0.0
2016-Jul-23 04:29N 35°30' E 139°49'0 0.0
2016-Jul-23 03:32N 35°30' E 139°49'0 0.0
2016-Jul-23 02:32N 35°30' E 139°49'0 0.0
2016-Jul-23 01:32N 35°30' E 139°49'0 0.0
2016-Jul-23 00:32N 35°30' E 139°49'0 0.0
2016-Jul-22 23:32N 35°30' E 139°49'0 0.0
2016-Jul-22 22:32N 35°30' E 139°49'0 0.0
2016-Jul-22 21:32N 35°30' E 139°49'0 0.0
2016-Jul-22 20:32N 35°30' E 139°49'0 0.0
2016-Jul-22 19:32N 35°30' E 139°49'0 0.0
2016-Jul-22 18:32N 35°30' E 139°49'0 0.0
2016-Jul-22 17:32N 35°30' E 139°49'0 0.0
2016-Jul-22 16:32N 35°30' E 139°49'0 0.0
2016-Jul-22 15:32N 35°30' E 139°49'0 0.0
2016-Jul-22 14:32N 35°30' E 139°49'8 8.4
2016-Jul-22 13:33N 35°22' E 139°45'9 8.9
2016-Jul-22 12:33N 35°13' E 139°47'1110.9
2016-Jul-22 11:33N 35°03' E 139°45'11 9.9
2016-Jul-22 10:28N 34°52' E 139°49'1010.6
2016-Jul-22 09:32N 34°55' E 140°01'1111.3
2016-Jul-22 08:33N 35°01' E 140°11'4710.7
2016-Jul-22 04:11N 35°36' E 140°49'  
Track history (hours):
 
Tides and Currents Weather Stations Pressure Air Temp Water Temp Dewpoint Dewpoint Depression Visibility Wind Speed Wind Dir Waves Ship Positions

Ryoho Maru No.2

Last reported at 2016-Jul-26 11:05 UTC. Time now 2016-Jul-26 12:15 UTC.
Position N 35°02' E 140°13'.

Length 57 m; draft 4 m.

Type: Tanker. MMSI: 431001062.

Date/timePositionNaut miles runAvg speedWind from/ knotsBaromVisibWave heightAir tempDewpointWater temp
2016-Jul-26 11:05N 35°02' E 140°13'6 9.8
2016-Jul-26 10:29N 34°59' E 140°07'910.0
2016-Jul-26 09:32N 34°54' E 139°58'10 8.9
2016-Jul-26 08:28N 34°55' E 139°46'8 8.6
2016-Jul-26 07:33N 35°03' E 139°45'10 9.7
2016-Jul-26 06:33N 35°13' E 139°46'9 9.2
2016-Jul-26 05:33N 35°21' E 139°42'9 8.5
2016-Jul-26 04:34N 35°28' E 139°49'9 9.2
2016-Jul-26 03:33N 35°29' E 140°00'1 1.2
2016-Jul-26 02:28N 35°28' E 140°01'0 0.0
2016-Jul-26 01:28N 35°28' E 140°01'0 0.0
2016-Jul-26 00:28N 35°28' E 140°01'0 0.0
2016-Jul-25 23:28N 35°28' E 140°01'2 2.3
2016-Jul-25 22:33N 35°29' E 139°59'0 0.2
2016-Jul-25 21:33N 35°29' E 139°59'0 0.0
2016-Jul-25 20:33N 35°29' E 139°59'0 0.0
2016-Jul-25 19:33N 35°29' E 139°59'0 0.1
2016-Jul-25 18:33N 35°29' E 139°59'0 0.0
2016-Jul-25 17:33N 35°29' E 139°59'0 0.0
2016-Jul-25 16:33N 35°29' E 139°59'0 0.0
2016-Jul-25 15:33N 35°29' E 139°59'0 0.0
2016-Jul-25 14:33N 35°29' E 139°59'0 0.0
2016-Jul-25 13:33N 35°29' E 139°59'0 0.0
2016-Jul-25 12:33N 35°29' E 139°59'0 0.0
2016-Jul-25 11:24N 35°29' E 139°59'0 0.0
2016-Jul-25 10:33N 35°29' E 139°59'0 0.0
2016-Jul-25 09:33N 35°29' E 139°59'0 0.0
2016-Jul-25 08:18N 35°29' E 139°59'0 0.0
2016-Jul-25 07:27N 35°29' E 139°59'0 0.0
2016-Jul-25 06:33N 35°29' E 139°59'0 0.0
2016-Jul-25 05:27N 35°29' E 139°59'2 2.3
2016-Jul-25 04:33N 35°30' E 139°56'9 8.7
2016-Jul-25 03:33N 35°31' E 139°46'1 0.5
2016-Jul-25 02:31N 35°32' E 139°45'0 0.0
2016-Jul-25 01:31N 35°32' E 139°45'0 0.0
2016-Jul-25 00:31N 35°32' E 139°45'1 1.4
2016-Jul-24 23:33N 35°31' E 139°46'3 2.6
2016-Jul-24 22:32N 35°30' E 139°49'0 0.0
2016-Jul-24 21:32N 35°30' E 139°49'0 0.0
2016-Jul-24 20:32N 35°30' E 139°49'0 0.0
2016-Jul-24 19:32N 35°30' E 139°49'0 0.0
2016-Jul-24 18:29N 35°30' E 139°49'0 0.0
2016-Jul-24 17:29N 35°30' E 139°49'0 0.0
2016-Jul-24 16:32N 35°30' E 139°49'0 0.0
2016-Jul-24 15:32N 35°30' E 139°49'0 0.0
2016-Jul-24 14:32N 35°30' E 139°49'0 0.0
2016-Jul-24 13:32N 35°30' E 139°49'0 0.0
2016-Jul-24 12:32N 35°30' E 139°49'0 0.0
2016-Jul-24 11:32N 35°30' E 139°49'0 0.0
2016-Jul-24 10:32N 35°30' E 139°49'0 0.0
2016-Jul-24 09:32N 35°30' E 139°49'0 0.0
2016-Jul-24 08:32N 35°30' E 139°49'0 0.0
2016-Jul-24 07:32N 35°30' E 139°49'0 0.0
2016-Jul-24 06:32N 35°30' E 139°49'0 0.0
2016-Jul-24 05:32N 35°30' E 139°49'0 0.0
2016-Jul-24 04:32N 35°30' E 139°49'0 0.0
2016-Jul-24 03:32N 35°30' E 139°49'0 0.0
2016-Jul-24 02:32N 35°30' E 139°49'0 0.0
2016-Jul-24 01:32N 35°30' E 139°49'0 0.0
2016-Jul-24 00:32N 35°30' E 139°49'0 0.0
2016-Jul-23 23:32N 35°30' E 139°49'0 0.0
2016-Jul-23 22:32N 35°30' E 139°49'0 0.0
2016-Jul-23 21:32N 35°30' E 139°49'0 0.0
2016-Jul-23 20:32N 35°30' E 139°49'0 0.0
2016-Jul-23 19:32N 35°30' E 139°49'0 0.0
2016-Jul-23 18:32N 35°30' E 139°49'0 0.0
2016-Jul-23 17:32N 35°30' E 139°49'0 0.0
2016-Jul-23 16:32N 35°30' E 139°49'0 0.0
2016-Jul-23 15:32N 35°30' E 139°49'0 0.0
2016-Jul-23 14:32N 35°30' E 139°49'0 0.0
2016-Jul-23 13:32N 35°30' E 139°49'0 0.0
2016-Jul-23 12:32N 35°30' E 139°49'0 0.0
2016-Jul-23 11:32N 35°30' E 139°49'0 0.0
2016-Jul-23 10:32N 35°30' E 139°49'0 0.0
2016-Jul-23 09:32N 35°30' E 139°49'0 0.0
2016-Jul-23 08:32N 35°30' E 139°49'0 0.0
2016-Jul-23 07:32N 35°30' E 139°49'0 0.0
2016-Jul-23 06:32N 35°30' E 139°49'0 0.0
2016-Jul-23 04:29N 35°30' E 139°49'0 0.0
2016-Jul-23 03:32N 35°30' E 139°49'0 0.0
2016-Jul-23 02:32N 35°30' E 139°49'0 0.0
2016-Jul-23 01:32N 35°30' E 139°49'0 0.0
2016-Jul-23 00:32N 35°30' E 139°49'0 0.0
2016-Jul-22 23:32N 35°30' E 139°49'0 0.0
2016-Jul-22 22:32N 35°30' E 139°49'0 0.0
2016-Jul-22 21:32N 35°30' E 139°49'0 0.0
2016-Jul-22 20:32N 35°30' E 139°49'0 0.0
2016-Jul-22 19:32N 35°30' E 139°49'0 0.0
2016-Jul-22 18:32N 35°30' E 139°49'0 0.0
2016-Jul-22 17:32N 35°30' E 139°49'0 0.0
2016-Jul-22 16:32N 35°30' E 139°49'0 0.0
2016-Jul-22 15:32N 35°30' E 139°49'0 0.0
2016-Jul-22 14:32N 35°30' E 139°49'8 8.4
2016-Jul-22 13:33N 35°22' E 139°45'9 8.9
2016-Jul-22 12:33N 35°13' E 139°47'1110.9
2016-Jul-22 11:33N 35°03' E 139°45'11 9.9
2016-Jul-22 10:28N 34°52' E 139°49'1010.6
2016-Jul-22 09:32N 34°55' E 140°01'1111.3
2016-Jul-22 08:33N 35°01' E 140°11'4710.7
2016-Jul-22 04:11N 35°36' E 140°49'  

Dump ship's entire track history